Time;durP1;ratioP1;P1;durP2;ratioP2;P2;SDS_P1;SDS_P2;PMS_P1;PMS_P2;Temp;Humidity;BMP_temperature;BMP_pressure;BME280_temperature;BME280_humidity;BME280_pressure;Samples;Min_cycle;Max_cycle;Signal;HPM_P1;HPM_P2
2023/08/24 00:01:43;;;;;;;6.70;3.83;;;22.10;99.90;;;21.69;100.00;100863.56;4150421;28;20044;-75
2023/08/24 00:03:45;;;;;;;3.38;3.00;;;22.10;99.90;;;21.67;100.00;100860.28;4142367;28;20027;-75
2023/08/24 00:05:47;;;;;;;3.72;3.08;;;22.10;99.90;;;21.66;100.00;100852.44;4145206;28;20055;-75
2023/08/24 00:07:48;;;;;;;4.78;3.33;;;22.10;99.90;;;21.62;100.00;100852.09;4151385;28;20121;-75
2023/08/24 00:09:53;;;;;;;3.83;3.08;;;22.00;99.90;;;21.59;100.00;100841.81;4138368;28;20030;-75
2023/08/24 00:11:54;;;;;;;4.05;3.05;;;22.00;99.90;;;21.59;100.00;100846.38;4149677;28;20026;-75
2023/08/24 00:13:55;;;;;;;4.57;3.05;;;22.00;99.90;;;21.54;100.00;100828.22;4149205;28;20037;-75
2023/08/24 00:15:55;;;;;;;6.28;3.42;;;22.00;99.90;;;21.55;100.00;100837.94;4137623;28;20022;-75
2023/08/24 00:17:57;;;;;;;5.32;3.42;;;22.00;99.90;;;21.56;100.00;100836.06;4146264;28;20030;-75
2023/08/24 00:19:58;;;;;;;4.78;3.17;;;22.00;99.90;;;21.54;100.00;100828.22;4141715;28;20030;-75
2023/08/24 00:21:59;;;;;;;4.60;2.95;;;21.90;99.90;;;21.49;100.00;100817.38;4138442;28;20117;-75
2023/08/24 00:23:59;;;;;;;3.20;2.70;;;21.90;99.90;;;21.50;100.00;100825.16;4137665;28;20033;-75
2023/08/24 00:26:00;;;;;;;3.85;2.65;;;21.90;99.90;;;21.42;100.00;100819.28;4137563;28;20032;-75
2023/08/24 00:28:01;;;;;;;3.85;3.13;;;21.90;99.90;;;21.39;100.00;100823.25;4148075;28;20412;-75
2023/08/24 00:30:07;;;;;;;3.55;2.83;;;21.80;99.90;;;21.37;100.00;100828.03;4148564;28;20085;-75
2023/08/24 00:32:08;;;;;;;4.68;3.00;;;21.80;99.90;;;21.33;100.00;100823.31;4126008;28;20054;-75
2023/08/24 00:34:09;;;;;;;3.85;2.72;;;21.80;99.90;;;21.28;100.00;100821.31;4143772;28;20490;-75
2023/08/24 00:36:10;;;;;;;4.45;2.85;;;21.70;99.90;;;21.26;100.00;100819.91;4148436;28;20022;-75
2023/08/24 00:38:11;;;;;;;5.10;3.58;;;21.70;99.90;;;21.20;100.00;100821.63;4150301;28;20065;-75
2023/08/24 00:40:12;;;;;;;4.80;2.92;;;21.70;99.90;;;21.17;100.00;100823.94;4137792;28;20033;-75
2023/08/24 00:42:15;;;;;;;5.38;3.22;;;21.60;99.90;;;21.13;100.00;100814.69;4142497;28;20039;-75
2023/08/24 00:44:17;;;;;;;3.28;2.85;;;21.60;99.90;;;21.09;100.00;100811.63;4154256;28;20489;-75
2023/08/24 00:46:18;;;;;;;5.40;3.33;;;21.50;99.90;;;21.08;100.00;100811.81;4143764;28;20030;-75
2023/08/24 00:48:20;;;;;;;4.10;3.42;;;21.50;99.90;;;21.09;100.00;100808.13;4155335;28;20068;-75
2023/08/24 00:50:21;;;;;;;3.70;2.70;;;21.50;99.90;;;21.04;100.00;100805.25;4156284;28;20021;-75
2023/08/24 00:52:25;;;;;;;5.10;3.33;;;21.50;99.90;;;21.03;100.00;100792.91;4156199;28;20034;-75
2023/08/24 00:54:26;;;;;;;3.60;2.92;;;21.50;99.90;;;21.06;100.00;100798.63;4171566;28;20021;-75
2023/08/24 00:56:29;;;;;;;4.55;3.42;;;21.50;99.90;;;21.08;100.00;100795.72;4157376;28;20088;-75
2023/08/24 00:58:32;;;;;;;7.10;4.00;;;21.50;99.90;;;21.04;100.00;100789.16;4148067;28;20506;-75
2023/08/24 01:00:32;;;;;;;5.45;3.63;;;21.50;99.90;;;;;;4155103;28;20065;-75
2023/08/24 01:02:34;;;;;;;3.85;3.45;;;21.40;99.90;;;20.97;100.00;100789.22;4156195;28;20065;-75
2023/08/24 01:04:36;;;;;;;6.07;3.70;;;21.40;99.90;;;20.93;100.00;100788.88;4151174;28;20092;-75
2023/08/24 01:06:37;;;;;;;2.92;2.65;;;21.40;99.90;;;20.91;100.00;100784.75;4155503;28;20022;-75
2023/08/24 01:08:39;;;;;;;5.97;3.22;;;21.40;99.90;;;20.88;100.00;100766.44;4150244;28;20033;-75
2023/08/24 01:10:59;;;;;;;4.07;3.22;;;21.40;99.90;;;20.87;100.00;100768.31;4154096;28;20026;-75
2023/08/24 01:13:08;;;;;;;5.15;3.22;;;21.30;99.90;;;20.85;100.00;100769.56;4143878;28;20095;-75
2023/08/24 01:15:47;;;;;;;4.25;3.42;;;21.30;99.90;;;20.80;100.00;100762.19;4146555;28;20022;-75
2023/08/24 01:17:52;;;;;;;4.05;3.58;;;21.30;99.90;;;20.80;100.00;100764.88;4156109;28;20180;-75
2023/08/24 01:19:54;;;;;;;5.30;3.60;;;21.30;99.90;;;20.77;100.00;100762.63;4162116;28;20022;-75
2023/08/24 01:21:57;;;;;;;5.93;3.40;;;21.20;99.90;;;20.77;100.00;100761.81;4124924;28;20034;-75
2023/08/24 01:24:24;;;;;;;5.65;3.10;;;21.20;99.90;;;20.74;100.00;100755.03;4144345;28;20026;-75
2023/08/24 01:26:26;;;;;;;3.67;3.10;;;21.20;99.90;;;20.71;100.00;100760.84;4153522;28;20040;-75
2023/08/24 01:28:27;;;;;;;4.93;3.10;;;21.20;99.90;;;20.72;100.00;100762.50;4139713;28;20117;-75
2023/08/24 01:30:30;;;;;;;5.97;3.80;;;21.20;99.90;;;20.72;100.00;100753.63;4132287;28;20070;-75
2023/08/24 01:32:32;;;;;;;8.35;3.50;;;21.20;99.90;;;20.70;100.00;100755.69;4150566;28;20018;-75
2023/08/24 01:34:36;;;;;;;4.43;3.88;;;21.10;99.90;;;20.70;100.00;100747.63;4155795;28;20033;-75
2023/08/24 01:36:37;;;;;;;4.50;3.78;;;21.10;99.90;;;20.72;100.00;100754.44;4146205;28;20109;-75
2023/08/24 01:38:38;;;;;;;5.47;3.35;;;21.20;99.90;;;20.75;100.00;100754.00;4139672;28;20573;-75
2023/08/24 01:41:24;;;;;;;5.30;3.75;;;21.10;99.90;;;20.70;100.00;100758.38;4156485;28;20041;-75
2023/08/24 01:43:30;;;;;;;6.18;4.05;;;21.20;99.90;;;20.71;100.00;100760.84;4146872;28;20034;-75
2023/08/24 01:45:32;;;;;;;5.93;4.60;;;21.20;99.90;;;20.69;100.00;100768.28;4155788;28;20018;-75
2023/08/24 01:47:36;;;;;;;7.22;4.45;;;21.10;99.90;;;20.69;100.00;100765.63;4151077;28;20048;-75
2023/08/24 01:49:38;;;;;;;9.98;4.57;;;21.20;99.90;;;20.66;100.00;100768.72;4152488;28;20458;-74
2023/08/24 01:51:40;;;;;;;5.57;4.25;;;21.20;99.90;;;20.72;100.00;100775.91;4147960;28;20177;-75
2023/08/24 01:53:42;;;;;;;4.82;3.92;;;21.20;99.90;;;20.73;100.00;100779.38;4152719;28;20026;-75
2023/08/24 01:55:45;;;;;;;4.47;3.90;;;21.10;99.90;;;20.74;100.00;100778.34;4152762;28;20029;-75
2023/08/24 01:57:48;;;;;;;4.05;3.50;;;21.20;99.90;;;20.73;100.00;100785.56;4146576;28;20421;-75
2023/08/24 01:59:49;;;;;;;6.10;3.90;;;21.20;99.90;;;20.75;100.00;100780.81;4145962;28;20088;-75
2023/08/24 02:01:49;;;;;;;5.93;3.92;;;21.20;99.90;;;20.75;100.00;100772.78;4146703;28;20026;-75
2023/08/24 02:03:50;;;;;;;6.15;3.63;;;21.20;99.90;;;20.76;100.00;100774.38;4152249;28;20109;-75
2023/08/24 02:05:51;;;;;;;7.57;4.28;;;21.20;99.90;;;20.79;100.00;100778.47;4149321;28;20030;-75
2023/08/24 02:07:52;;;;;;;4.25;3.85;;;21.20;99.90;;;20.78;100.00;100784.91;4147690;28;20034;-75
2023/08/24 02:09:53;;;;;;;5.72;3.72;;;21.20;99.90;;;20.75;100.00;100777.31;4140505;28;20026;-75
2023/08/24 02:11:54;;;;;;;5.97;3.97;;;21.20;99.90;;;20.74;100.00;100779.16;4150799;28;20022;-75
2023/08/24 02:13:54;;;;;;;4.65;4.10;;;21.20;99.90;;;20.71;100.00;100776.09;4151031;28;20397;-75
2023/08/24 02:16:08;;;;;;;3.63;3.17;;;21.20;99.90;;;20.68;100.00;100768.50;4145643;28;20033;-75
2023/08/24 02:18:09;;;;;;;4.70;4.20;;;21.20;99.90;;;20.65;100.00;100774.31;4142654;28;20042;-75
2023/08/24 02:20:11;;;;;;;4.30;3.90;;;21.10;99.90;;;20.62;100.00;100759.47;4152814;28;20066;-75
2023/08/24 02:22:12;;;;;;;5.68;4.10;;;21.10;99.90;;;20.58;100.00;100758.28;4152704;28;20026;-75
2023/08/24 02:24:12;;;;;;;6.05;4.47;;;21.10;99.90;;;20.58;100.00;100763.63;4147160;28;20034;-75
2023/08/24 02:26:13;;;;;;;8.05;4.70;;;21.10;99.90;;;20.55;100.00;100768.66;4143304;28;20031;-75
2023/08/24 02:28:14;;;;;;;4.60;4.03;;;21.00;99.90;;;20.48;100.00;100749.94;4140082;28;20038;-75
2023/08/24 02:30:15;;;;;;;5.50;4.20;;;21.00;99.90;;;20.47;100.00;100767.03;4150459;28;20521;-75
2023/08/24 02:32:16;;;;;;;6.22;4.68;;;20.90;99.90;;;20.45;100.00;100752.22;4153958;28;20406;-75
2023/08/24 02:34:18;;;;;;;5.82;4.25;;;20.90;99.90;;;20.41;100.00;100750.00;4152888;28;20018;-75
2023/08/24 02:36:18;;;;;;;6.45;4.18;;;20.90;99.90;;;20.42;100.00;100748.13;4140519;28;20042;-75
2023/08/24 02:38:19;;;;;;;7.35;4.63;;;20.90;99.90;;;20.39;100.00;100744.03;4141427;28;20030;-75
2023/08/24 02:40:20;;;;;;;9.73;4.75;;;20.90;99.90;;;20.40;100.00;100734.94;4147107;28;20034;-75
2023/08/24 02:42:21;;;;;;;9.07;4.43;;;20.90;99.90;;;20.38;100.00;100728.16;4146397;28;20034;-75
2023/08/24 02:44:22;;;;;;;6.43;4.53;;;20.90;99.90;;;20.40;100.00;100742.16;4152369;28;20540;-75
2023/08/24 02:46:23;;;;;;;4.18;3.78;;;20.90;99.90;;;20.36;100.00;100732.94;4142331;28;20036;-75
2023/08/24 02:48:24;;;;;;;5.45;4.63;;;20.80;99.90;;;20.34;100.00;100735.81;4142975;28;20057;-75
2023/08/24 02:50:24;;;;;;;5.15;4.65;;;20.80;99.90;;;20.30;100.00;100723.09;4151416;28;20080;-75
2023/08/24 02:52:25;;;;;;;4.88;4.03;;;20.80;99.90;;;20.30;100.00;100723.94;4144257;28;20040;-75
2023/08/24 02:54:26;;;;;;;4.70;4.20;;;20.80;99.90;;;20.27;100.00;100718.19;4138397;28;20030;-75
2023/08/24 02:56:27;;;;;;;8.52;4.40;;;20.70;99.90;;;20.25;100.00;100715.72;4139475;28;20027;-75
2023/08/24 02:58:29;;;;;;;5.82;4.25;;;20.70;99.90;;;20.22;100.00;100712.66;4147682;28;20018;-75
2023/08/24 03:00:30;;;;;;;5.85;4.85;;;20.70;99.90;;;20.23;100.00;100717.75;4144300;28;20032;-75
2023/08/24 03:02:31;;;;;;;6.80;5.05;;;20.70;99.90;;;20.21;100.00;100714.50;4146718;28;20042;-74
2023/08/24 03:04:33;;;;;;;8.40;4.72;;;20.70;99.90;;;20.18;100.00;100714.09;4139502;28;20046;-75
2023/08/24 03:06:34;;;;;;;8.10;5.53;;;20.60;99.90;;;20.22;100.00;100720.69;4151136;28;20109;-75
2023/08/24 03:08:35;;;;;;;6.97;4.75;;;20.60;99.90;;;20.21;100.00;100719.84;4146228;28;20045;-75
2023/08/24 03:10:37;;;;;;;6.28;4.97;;;20.70;99.90;;;20.26;100.00;100716.53;4151872;28;20034;-75
2023/08/24 03:12:37;;;;;;;7.40;4.38;;;20.70;99.90;;;20.25;100.00;100717.56;4146860;28;20026;-75
2023/08/24 03:14:38;;;;;;;5.00;4.43;;;20.70;99.90;;;20.28;100.00;100719.84;4147548;28;20022;-75
2023/08/24 03:16:39;;;;;;;7.35;4.57;;;20.70;99.90;;;20.25;100.00;100713.03;4142752;28;20064;-75
2023/08/24 03:18:40;;;;;;;6.65;4.63;;;20.70;99.90;;;20.26;100.00;100722.72;4139562;28;20035;-75
2023/08/24 03:20:41;;;;;;;8.02;5.00;;;20.70;99.90;;;20.27;100.00;100708.28;4139978;28;20053;-75
2023/08/24 03:22:43;;;;;;;8.23;4.60;;;20.70;99.90;;;20.31;100.00;100708.66;4138731;28;20018;-75
2023/08/24 03:24:43;;;;;;;12.75;5.72;;;20.70;99.90;;;20.29;100.00;100705.38;4138927;28;20041;-75
2023/08/24 03:26:44;;;;;;;8.52;5.35;;;20.70;99.90;;;20.31;100.00;100708.66;4151213;28;20026;-75
2023/08/24 03:28:46;;;;;;;5.40;4.90;;;20.80;99.90;;;20.34;100.00;100709.03;4150304;28;20034;-75
2023/08/24 03:30:51;;;;;;;9.65;5.47;;;20.70;99.90;;;20.31;100.00;100700.59;4151815;28;20060;-74
2023/08/24 03:32:52;;;;;;;8.55;5.18;;;20.80;99.90;;;20.35;100.00;100710.69;4151943;28;20037;-75
2023/08/24 03:34:59;;;;;;;8.75;5.40;;;20.80;99.90;;;20.31;100.00;100704.13;4151346;28;20030;-75
2023/08/24 03:37:00;;;;;;;7.55;5.38;;;20.80;99.90;;;20.32;100.00;100707.63;4151636;28;20099;-74
2023/08/24 03:39:01;;;;;;;6.07;5.10;;;20.80;99.90;;;20.34;100.00;100713.56;4143604;28;20057;-74
2023/08/24 03:41:03;;;;;;;8.35;4.97;;;20.80;99.90;;;20.29;100.00;100708.88;4150250;28;20026;-74
2023/08/24 03:43:04;;;;;;;7.28;6.03;;;20.80;99.90;;;20.29;100.00;100714.25;4151515;28;20049;-75
2023/08/24 03:45:06;;;;;;;6.95;4.97;;;20.80;99.90;;;20.26;100.00;100703.13;4146783;28;20450;-75
2023/08/24 03:47:08;;;;;;;6.57;4.60;;;20.70;99.90;;;20.22;100.00;100699.25;4146417;28;20089;-75
2023/08/24 03:49:09;;;;;;;7.93;5.35;;;20.70;99.90;;;20.22;100.00;100688.53;4150654;28;20553;-75
2023/08/24 03:51:10;;;;;;;5.97;4.88;;;20.70;99.90;;;20.20;100.00;100699.44;4149431;28;20038;-74
2023/08/24 03:53:11;;;;;;;6.00;4.40;;;20.70;99.90;;;20.19;100.00;100697.00;4149575;28;20033;-74
2023/08/24 03:55:12;;;;;;;9.73;5.35;;;20.60;99.90;;;20.14;100.00;100700.31;4144859;28;20026;-75
2023/08/24 03:57:12;;;;;;;6.40;4.35;;;20.60;99.90;;;20.13;100.00;100703.25;4140148;28;20081;-75
2023/08/24 03:59:13;;;;;;;7.85;5.55;;;20.60;99.90;;;20.11;100.00;100702.63;4139342;28;20497;-75
2023/08/24 04:01:15;;;;;;;5.65;4.63;;;20.60;99.90;;;20.09;100.00;100691.31;4147476;28;20037;-75
2023/08/24 04:03:16;;;;;;;7.72;5.75;;;20.60;99.90;;;20.07;100.00;100690.72;4151285;28;20022;-75
2023/08/24 04:05:17;;;;;;;7.63;5.05;;;20.50;99.90;;;20.08;100.00;100695.84;4151099;28;20026;-75
2023/08/24 04:07:18;;;;;;;8.93;5.65;;;20.50;99.90;;;20.04;100.00;100691.97;4151226;28;20026;-75
2023/08/24 04:09:19;;;;;;;5.80;4.80;;;20.50;99.90;;;20.01;100.00;100689.72;4151113;28;20088;-75
2023/08/24 04:11:20;;;;;;;7.78;5.22;;;20.50;99.90;;;20.02;100.00;100698.56;4134674;28;20030;-75
2023/08/24 04:13:21;;;;;;;8.20;5.65;;;20.50;99.90;;;20.00;100.00;100701.47;4152310;28;20025;-75
2023/08/24 04:15:22;;;;;;;8.77;5.65;;;20.40;99.90;;;19.99;100.00;100710.53;4150984;28;20155;-75
2023/08/24 04:17:24;;;;;;;8.80;6.05;;;20.50;99.90;;;19.98;100.00;100708.91;4150546;28;20026;-75
2023/08/24 04:19:25;;;;;;;7.38;4.85;;;20.40;99.90;;;19.96;100.00;100700.28;4144417;28;20053;-75
2023/08/24 04:21:26;;;;;;;6.35;5.25;;;20.50;99.90;;;19.97;100.00;100691.22;4149299;28;20026;-75
2023/08/24 04:23:27;;;;;;;7.50;5.30;;;20.50;99.90;;;19.94;100.00;100688.97;4149702;28;20025;-75
2023/08/24 04:25:29;;;;;;;5.25;4.68;;;20.50;99.90;;;19.98;100.00;100681.31;4140532;28;20093;-75
2023/08/24 04:27:30;;;;;;;11.60;5.00;;;20.50;99.90;;;19.99;100.00;100682.94;4143382;28;20025;-75
2023/08/24 04:29:31;;;;;;;7.32;4.82;;;20.50;99.90;;;19.99;100.00;100682.94;4143934;28;20054;-75
2023/08/24 04:31:31;;;;;;;6.85;4.45;;;20.50;99.90;;;19.98;100.00;100694.72;4149831;28;20026;-75
2023/08/24 04:33:32;;;;;;;5.85;3.95;;;20.50;99.90;;;19.95;100.00;100692.47;4151455;28;20057;-75
2023/08/24 04:35:36;;;;;;;10.18;4.63;;;20.50;99.90;;;19.98;100.00;100700.06;4151048;28;20026;-75
2023/08/24 04:37:38;;;;;;;8.10;5.22;;;20.50;99.90;;;19.96;100.00;100702.13;4150837;28;20076;-75
2023/08/24 04:39:38;;;;;;;8.10;4.43;;;20.50;99.90;;;19.98;100.00;100697.38;4149806;28;20141;-75
2023/08/24 04:41:39;;;;;;;11.32;4.70;;;20.50;99.90;;;19.98;100.00;100686.69;4150791;28;20033;-75
2023/08/24 04:43:40;;;;;;;8.35;4.38;;;20.50;99.90;;;19.97;100.00;100690.38;4136171;28;20056;-75
2023/08/24 04:45:41;;;;;;;6.57;4.75;;;20.50;99.90;;;19.98;100.00;100689.34;4137469;28;20031;-75
2023/08/24 04:47:42;;;;;;;5.80;4.03;;;20.50;99.90;;;19.92;100.00;100695.59;4149608;28;20370;-74
2023/08/24 04:49:42;;;;;;;7.88;4.50;;;20.40;99.90;;;19.90;100.00;100701.13;4147317;28;20034;-74
2023/08/24 04:51:43;;;;;;;6.00;3.95;;;20.40;99.90;;;19.84;100.00;100689.44;4138257;28;20018;-75
2023/08/24 04:53:44;;;;;;;7.70;4.32;;;20.40;99.90;;;19.81;100.00;100702.44;4152073;28;20033;-75
2023/08/24 04:55:46;;;;;;;8.82;3.97;;;20.40;99.90;;;19.79;100.00;100702.69;4150402;28;20049;-75
2023/08/24 04:57:47;;;;;;;8.82;4.25;;;20.30;99.90;;;19.72;100.00;100687.69;4147468;28;20030;-75
2023/08/24 04:59:48;;;;;;;7.85;4.28;;;20.30;99.90;;;19.74;100.00;100699.00;4143531;28;20025;-75
2023/08/24 05:01:48;;;;;;;9.10;3.88;;;20.20;99.90;;;19.72;100.00;100717.94;4138628;28;20030;-75
2023/08/24 05:03:49;;;;;;;9.15;3.60;;;20.20;99.90;;;19.69;100.00;100721.06;4150133;28;20030;-75
2023/08/24 05:05:50;;;;;;;6.97;4.10;;;20.20;99.90;;;19.68;100.00;100729.31;4144190;28;20034;-75
2023/08/24 05:07:54;;;;;;;6.10;4.07;;;20.20;99.90;;;19.67;100.00;100727.66;4150747;28;20057;-75
2023/08/24 05:09:55;;;;;;;6.53;3.60;;;20.20;99.90;;;19.70;100.00;100736.09;4150825;28;20378;-75
2023/08/24 05:11:56;;;;;;;10.15;4.30;;;20.20;99.90;;;19.69;100.00;100726.41;4150487;28;20088;-75
2023/08/24 05:13:57;;;;;;;7.57;3.83;;;20.20;99.90;;;19.72;100.00;100725.97;4138404;28;20026;-75
2023/08/24 05:15:58;;;;;;;8.23;3.88;;;20.20;99.90;;;19.75;100.00;100728.22;4143766;28;20113;-75
2023/08/24 05:17:59;;;;;;;6.97;3.50;;;20.30;99.90;;;19.74;100.00;100731.94;4134369;28;20034;-75
2023/08/24 05:20:00;;;;;;;3.58;2.85;;;20.30;99.90;;;19.80;100.00;100735.63;4140889;28;20041;-75
2023/08/24 05:22:00;;;;;;;7.15;3.58;;;20.30;99.90;;;19.81;100.00;100731.88;4134696;28;20050;-75
2023/08/24 05:24:02;;;;;;;5.22;3.55;;;20.30;99.90;;;19.78;100.00;100743.84;4137929;28;20022;-75
2023/08/24 05:26:04;;;;;;;5.85;3.22;;;20.30;99.90;;;19.82;100.00;100750.44;4144865;28;20083;-75
2023/08/24 05:28:06;;;;;;;5.40;3.28;;;20.40;99.90;;;19.86;100.00;100764.22;4151052;28;20026;-75
2023/08/24 05:30:07;;;;;;;5.18;3.30;;;20.40;99.90;;;19.91;100.00;100776.94;4154653;28;20036;-75
2023/08/24 05:32:08;;;;;;;6.28;3.35;;;20.40;99.90;;;19.95;100.00;100775.47;4148291;28;20022;-75
2023/08/24 05:34:09;;;;;;;7.45;3.63;;;20.40;99.90;;;20.00;100.00;100779.13;4139623;28;20077;-75
2023/08/24 05:36:10;;;;;;;4.60;3.28;;;20.50;99.90;;;20.02;100.00;100784.25;4144540;28;20021;-75
2023/08/24 05:38:13;;;;;;;3.67;3.05;;;20.50;99.90;;;20.07;100.00;100803.19;4151868;28;20030;-75
2023/08/24 05:40:14;;;;;;;10.10;4.77;;;20.50;99.90;;;20.07;100.00;100809.34;4145480;28;20053;-75
2023/08/24 05:42:15;;;;;;;9.02;3.60;;;20.50;99.90;;;20.07;100.00;100809.34;4153206;28;20022;-75
2023/08/24 05:44:17;;;;;;;3.35;2.65;;;20.50;99.90;;;20.06;100.00;100807.72;4152467;28;20030;-75
2023/08/24 05:46:17;;;;;;;5.97;3.15;;;20.50;99.90;;;20.07;100.00;100808.56;4139605;28;20037;-75
2023/08/24 05:48:18;;;;;;;5.53;2.92;;;20.60;99.90;;;20.12;100.00;100824.78;4152312;28;20041;-75
2023/08/24 05:50:19;;;;;;;6.80;3.47;;;20.60;99.90;;;20.13;100.00;100837.94;4151494;28;20406;-75
2023/08/24 05:52:20;;;;;;;5.88;3.08;;;20.60;99.90;;;20.16;100.00;100837.53;4153730;28;20041;-74
2023/08/24 05:54:21;;;;;;;6.40;3.00;;;20.60;99.90;;;20.16;100.00;100844.75;4139270;28;20022;-74
2023/08/24 05:56:22;;;;;;;6.90;3.25;;;20.70;99.90;;;20.20;100.00;100852.13;4138519;28;20030;-75
2023/08/24 05:58:23;;;;;;;5.13;3.10;;;20.70;99.90;;;20.23;100.00;100869.63;4138858;28;20057;-75
2023/08/24 06:00:24;;;;;;;5.20;2.90;;;20.70;99.90;;;20.23;100.00;100859.75;4150306;28;20066;-74
2023/08/24 06:02:25;;;;;;;6.75;2.60;;;20.70;99.90;;;20.22;100.00;100854.63;4142368;28;20037;-74
2023/08/24 06:04:26;;;;;;;5.88;3.40;;;20.70;99.90;;;20.20;100.00;100840.59;4153296;28;20034;-75
2023/08/24 06:06:26;;;;;;;4.82;2.90;;;20.70;99.90;;;20.24;100.00;100847.16;4141672;28;20033;-75
2023/08/24 06:08:27;;;;;;;5.03;2.85;;;20.70;99.90;;;20.24;100.00;100852.53;4143859;28;20033;-75
2023/08/24 06:10:29;;;;;;;5.25;3.15;;;20.70;99.90;;;20.25;100.00;100855.00;4146527;28;20029;-75
2023/08/24 06:12:29;;;;;;;4.78;2.90;;;20.80;99.90;;;20.29;100.00;100844.69;4139019;28;20116;-75
2023/08/24 06:14:30;;;;;;;8.68;3.83;;;20.80;99.90;;;20.27;100.00;100826.16;4140222;28;20027;-75
2023/08/24 06:16:31;;;;;;;6.38;3.17;;;20.80;99.90;;;20.29;100.00;100834.78;4149989;28;20026;-76
2023/08/24 06:18:32;;;;;;;4.80;2.90;;;20.80;99.90;;;20.32;100.00;100846.94;4140571;28;20028;-75
2023/08/24 06:20:33;;;;;;;5.25;2.80;;;20.80;99.90;;;20.32;100.00;100845.06;4140110;28;20045;-79
2023/08/24 06:22:34;;;;;;;5.22;2.95;;;20.80;99.90;;;20.35;100.00;100866.06;4146078;28;20022;-75
2023/08/24 06:24:35;;;;;;;8.50;3.30;;;20.80;99.90;;;20.32;100.00;100865.69;4150145;28;20041;-76
2023/08/24 06:26:36;;;;;;;5.00;3.08;;;20.90;99.90;;;20.31;100.00;100897.00;4150405;28;20457;-76
2023/08/24 06:28:37;;;;;;;5.55;3.67;;;20.90;99.90;;;20.33;100.00;100894.13;4148565;28;20030;-75
2023/08/24 06:30:42;;;;;;;4.88;2.92;;;20.80;99.90;;;20.32;100.00;100873.72;4152776;28;20042;-76
2023/08/24 06:32:43;;;;;;;5.10;3.03;;;20.80;99.90;;;20.38;100.00;100871.00;4152731;28;20028;-75
2023/08/24 06:34:44;;;;;;;5.18;3.28;;;20.80;99.90;;;20.36;100.00;100873.09;4140900;28;20402;-75
2023/08/24 06:36:45;;;;;;;5.93;3.08;;;20.90;99.90;;;20.37;100.00;100872.03;4151134;28;20053;-76
2023/08/24 06:38:46;;;;;;;7.90;3.63;;;20.90;99.90;;;20.39;100.00;100882.56;4152224;28;20421;-75
2023/08/24 06:40:48;;;;;;;6.50;3.00;;;20.90;99.90;;;20.37;100.00;100885.44;4136158;28;20054;-75
2023/08/24 06:42:50;;;;;;;5.15;2.75;;;20.90;99.90;;;20.39;100.00;100885.22;4149963;28;20065;-76
2023/08/24 06:44:50;;;;;;;4.30;2.85;;;20.90;99.90;;;20.39;100.00;100880.69;4158089;28;20420;-76
2023/08/24 06:46:51;;;;;;;4.78;2.60;;;20.90;99.90;;;20.39;100.00;100887.91;4149716;28;20026;-75
2023/08/24 06:48:52;;;;;;;7.07;3.42;;;20.90;99.90;;;20.40;100.00;100900.25;4148294;28;20030;-75
2023/08/24 06:50:53;;;;;;;6.85;3.60;;;20.90;99.90;;;20.43;100.00;100899.81;4152267;28;20041;-76
2023/08/24 06:52:54;;;;;;;9.02;4.10;;;20.90;99.90;;;20.43;100.00;100894.47;4149271;28;20022;-76
2023/08/24 06:54:56;;;;;;;5.88;3.88;;;20.90;99.90;;;20.43;100.00;100897.13;4146450;28;20490;-76
2023/08/24 06:56:57;;;;;;;4.95;3.35;;;20.90;99.90;;;20.41;100.00;100909.94;4152023;28;20033;-74
2023/08/24 06:58:57;;;;;;;9.68;4.43;;;20.90;99.90;;;20.41;100.00;100918.81;4151940;28;20026;-75
2023/08/24 07:00:58;;;;;;;10.35;4.28;;;20.90;99.90;;;20.40;100.00;100906.44;4144659;28;20053;-75
2023/08/24 07:02:59;;;;;;;7.07;4.00;;;20.90;99.90;;;20.38;100.00;100896.97;4137923;28;20053;-74
2023/08/24 07:05:00;;;;;;;8.95;4.43;;;20.90;99.90;;;20.30;100.00;100906.09;4140139;28;20053;-74
2023/08/24 07:07:01;;;;;;;8.00;4.20;;;20.90;99.90;;;20.26;100.00;100904.06;4135723;28;20026;-75
2023/08/24 07:09:06;;;;;;;7.22;4.22;;;20.80;99.90;;;20.27;100.00;100889.63;4132905;28;20026;-74
2023/08/24 07:11:07;;;;;;;7.90;4.03;;;20.80;99.90;;;20.25;100.00;100892.50;4161185;28;20525;-74
2023/08/24 07:13:09;;;;;;;9.93;4.60;;;20.80;99.90;;;20.21;100.00;100919.94;4138990;28;20037;-75
2023/08/24 07:15:10;;;;;;;9.90;5.03;;;20.70;99.90;;;20.20;100.00;100915.59;4151121;28;20033;-75
2023/08/24 07:17:11;;;;;;;8.18;4.70;;;20.70;99.90;;;20.19;100.00;100895.22;4151988;28;20022;-74
2023/08/24 07:19:12;;;;;;;7.68;4.80;;;20.70;99.90;;;20.14;100.00;100868.25;4146633;28;20037;-75
2023/08/24 07:21:14;;;;;;;9.63;4.35;;;20.70;99.90;;;20.13;100.00;100864.75;4148188;28;20105;-75
2023/08/24 07:23:15;;;;;;;6.85;3.83;;;20.60;99.90;;;20.11;100.00;100866.00;4141920;28;20618;-74
2023/08/24 07:25:17;;;;;;;9.85;4.13;;;20.60;99.90;;;20.09;100.00;100844.78;4123204;28;20022;-74
2023/08/24 07:27:18;;;;;;;7.47;3.95;;;20.60;99.90;;;20.14;100.00;100814.66;4159289;28;20511;-74
2023/08/24 07:29:21;;;;;;;5.22;3.50;;;20.60;99.90;;;20.16;100.00;100796.56;4151732;28;20025;-74
2023/08/24 07:31:22;;;;;;;7.57;3.90;;;20.60;99.90;;;20.18;100.00;100784.56;4151478;28;20060;-75
2023/08/24 07:33:24;;;;;;;8.63;4.72;;;20.70;99.90;;;20.17;100.00;100766.03;4140126;28;20026;-74
2023/08/24 07:35:26;;;;;;;6.03;4.35;;;20.70;99.90;;;20.20;100.00;100760.22;4145577;28;20022;-74
2023/08/24 07:37:27;;;;;;;7.10;4.47;;;20.70;99.90;;;20.14;100.00;100727.13;4152147;28;20069;-74
2023/08/24 07:39:28;;;;;;;6.28;4.32;;;20.70;99.90;;;20.18;100.00;100717.59;4151570;28;20088;-75
2023/08/24 07:41:30;;;;;;;7.55;4.68;;;20.70;99.90;;;20.18;100.00;100682.78;4135040;28;20019;-76
2023/08/24 07:43:30;;;;;;;5.97;4.13;;;20.70;99.90;;;20.21;100.00;100657.41;4145450;28;20465;-76
2023/08/24 07:45:31;;;;;;;5.10;3.90;;;20.70;99.90;;;20.22;100.00;100613.53;4141844;28;20018;-75
2023/08/24 07:47:32;;;;;;;7.35;4.38;;;20.70;99.90;;;20.26;100.00;100598.66;4147834;28;20026;-75
2023/08/24 07:49:33;;;;;;;8.32;4.68;;;20.70;99.90;;;20.28;100.00;100618.03;4147934;28;20022;-75
2023/08/24 07:51:34;;;;;;;7.20;4.57;;;20.80;99.90;;;20.31;100.00;100631.78;4145970;28;20026;-75
2023/08/24 07:53:35;;;;;;;6.50;5.15;;;20.80;99.90;;;20.35;100.00;100651.75;4138857;28;20671;-75
2023/08/24 07:55:36;;;;;;;7.85;4.95;;;20.90;99.90;;;20.42;100.00;100665.91;4142453;28;20022;-75
2023/08/24 07:57:37;;;;;;;5.35;4.57;;;20.90;99.90;;;20.49;100.00;100663.13;4151371;28;20485;-75
2023/08/24 07:59:38;;;;;;;6.32;3.97;;;21.00;99.90;;;20.59;100.00;100679.50;4151512;28;20026;-75
2023/08/24 08:01:39;;;;;;;4.68;4.10;;;21.00;99.90;;;20.51;100.00;100665.59;4142849;28;20017;-76
2023/08/24 08:03:40;;;;;;;7.75;4.68;;;21.00;99.90;;;20.55;100.00;100645.34;4144487;28;20033;-76
2023/08/24 08:05:41;;;;;;;6.90;4.43;;;21.00;99.90;;;20.52;100.00;100638.56;4147620;28;20022;-76
2023/08/24 08:07:42;;;;;;;7.03;5.38;;;21.10;99.90;;;20.52;100.00;100641.25;4146378;28;20022;-76
2023/08/24 08:09:43;;;;;;;6.32;4.63;;;21.00;99.90;;;20.53;100.00;100647.41;4149768;28;20030;-76
2023/08/24 08:11:44;;;;;;;8.50;5.43;;;21.00;99.90;;;20.49;100.00;100663.13;4125308;28;20023;-77
2023/08/24 08:13:45;;;;;;;11.13;6.18;;;21.00;99.90;;;20.45;100.00;100664.63;4146355;28;20025;-77
2023/08/24 08:15:47;;;;;;;7.20;5.22;;;21.00;99.90;;;20.47;100.00;100680.47;4147906;28;20033;-75
2023/08/24 08:17:48;;;;;;;9.73;5.82;;;21.00;99.90;;;20.43;100.00;100669.38;4151170;28;20022;-75
2023/08/24 08:19:53;;;;;;;7.63;4.93;;;21.00;99.90;;;20.43;100.00;100682.75;4149148;28;20082;-76
2023/08/24 08:21:54;;;;;;;7.85;5.05;;;21.00;99.90;;;20.43;100.00;100696.16;4147863;28;20026;-76